PNCOM weather

La Comina
Pordenone (PN), Friuli-Venezia Giulia, Italy

Public forecast

Using degrees Celsius for public forecast. Weather courtesy of forecast.io.

METAR (pilot weather report)

Closest report is Aviano Air Base, 3.6 nm (6.7 km) NW. Retrieved 2019/07/17 12:55 UTC (46 minutes ago):

LIPA 171255Z 19005KT 9999 FEW050 28/19 Q1011 RMK FEW VIS MIN 9999 WIND THR05 /////KT WIND THR23 /////KT A2988 BLU

TAF (pilot weather forecast)

Forecast is more than 12 hours old.

Closest forecast is Aviano Air Base, 3.6 nm (6.7 km) NW. Retrieved 2015/11/03 12:24 UTC (4 years ago):

TAF TAF LIPA 031100Z 0312/0324 VRB03KT CAVOK